29 settembre 2022

Tempo Codice Tempo metereologico Temp. Vista Base nuvolosa Vento METAR/SPECI
16:00
V
16 °C 15 mi - 140° 140° 3 kt METAR CYYZ 292000Z 14003KT 100V260 15SM FEW045 16/06 A3043 RMK SC1 SC TR SLP309
15:00
V
15 °C 15 mi - Var Var 2 kt METAR CYYZ 291900Z VRB02KT 15SM FEW045 15/05 A3045 RMK SC1 SC TR SLP314
14:00
V
15 °C 15 mi - Var Var 2 kt METAR CYYZ 291800Z VRB02KT 15SM FEW040 15/05 A3047 RMK SC1 SC TR SLP324
13:00
V
14 °C 15 mi - Var 000° 0 kt METAR CYYZ 291700Z 00000KT 15SM FEW040 14/03 A3049 RMK SC1 SLP331
12:00
V
13 °C 15 mi - 010° 010° 7 kt METAR CYYZ 291600Z 01007KT 340V060 15SM FEW035 13/04 A3051 RMK SC2 SLP335
11:00
V
13 °C 15 mi - Var Var 4 kt METAR CYYZ 291500Z VRB04KT 15SM SCT030 13/05 A3051 RMK SC3 SLP338
10:00
V
12 °C 15 mi - 040° 040° 3 kt METAR CYYZ 291400Z 04003KT 020V130 15SM FEW025 FEW100 12/05 A3052 RMK SC1AC1 AC TR SLP339
09:00
V
10 °C 15 mi - Var Var 2 kt METAR CYYZ 291300Z VRB02KT 15SM FEW045 FEW100 10/06 A3051 RMK SC1AC1 SC TR AC TR SLP337
08:00
V
9 °C 15 mi - 300° 300° 4 kt METAR CYYZ 291200Z 30004KT 15SM FEW045 FEW100 09/06 A3049 RMK SC1AC1 AC TR SLP332
07:00
V
9 °C 15 mi - 350° 350° 4 kt METAR CYYZ 291100Z 35004KT 15SM FEW045 SCT090 09/06 A3048 RMK SC2AC1 AC TR SLP325
06:00
V
9 °C 15 mi 4.500 ft 340° 340° 5 kt METAR CYYZ 291000Z 34005KT 15SM BKN045 09/05 A3047 RMK SC7 SLP323
05:00
V
10 °C 15 mi 4.000 ft 300° 300° 5 kt METAR CYYZ 290900Z 30005KT 15SM FEW025 BKN040 10/06 A3045 RMK SC2SC5 SLP318
04:00
V
10 °C 15 mi 4.000 ft 320° 320° 5 kt METAR CYYZ 290800Z 32005KT 15SM FEW027 OVC040 10/07 A3045 RMK SC2SC6 SLP316
03:00
V
10 °C 15 mi 3.600 ft 310° 310° 4 kt METAR CYYZ 290700Z 31004KT 15SM OVC036 10/07 A3045 RMK SC8 SLP315
02:00
V
10 °C 15 mi 4.000 ft 310° 310° 7 kt METAR CYYZ 290600Z 31007KT 15SM SCT030 BKN040 10/07 A3044 RMK SC3SC4 SLP313
01:00
V
11 °C 15 mi 3.700 ft 330° 330° 4 kt METAR CYYZ 290500Z 33004KT 15SM SCT032 BKN037 11/07 A3044 RMK SC3SC4 SLP312
00:00
V
11 °C 15 mi 3.500 ft 340° 340° 7 kt METAR CYYZ 290400Z 34007KT 15SM OVC035 11/07 A3043 RMK SC8 SLP310

28 settembre 2022

Tempo Codice Tempo metereologico Temp. Vista Base nuvolosa Vento METAR/SPECI
23:00
V
11 °C 15 mi 3.500 ft 330° 330° 12 kt METAR CYYZ 290300Z 33012KT 15SM OVC035 11/07 A3042 RMK SC8 SLP305
22:00
V
12 °C 15 mi 3.500 ft 330° 330° 13 kt METAR CYYZ 290200Z 33013KT 15SM OVC035 12/07 A3040 RMK SC8 SLP298
21:00
V
12 °C 15 mi 3.300 ft 330° 330° 10 kt METAR CYYZ 290100Z 33010KT 15SM OVC033 12/07 A3039 RMK SC8 SLP294
20:00
V
12 °C 15 mi 3.500 ft 330° 330° 13 - 19 kt METAR CYYZ 290000Z 33013G19KT 15SM OVC035 12/07 A3036 RMK SC8 SLP287
19:00
V
12 °C 15 mi 3.500 ft 350° 350° 12 kt METAR CYYZ 282300Z CCA 35012KT 15SM OVC035 12/07 A3035 RMK SC8 SLP281
18:00
V
13 °C 15 mi 3.500 ft 360° 360° 14 kt METAR CYYZ 282200Z 36014KT 15SM BKN035 BKN080 13/07 A3033 RMK SC5AC1 SLP274
17:00
M
13 °C 15 mi 2.700 ft 350° 350° 12 - 20 kt METAR CYYZ 282100Z 35012G20KT 15SM BKN027 13/07 A3032 RMK SC7 SLP272
16:00
M
12 °C 15 mi 2.500 ft 340° 340° 13 kt METAR CYYZ 282000Z 34013KT 330V030 15SM OVC025 12/07 A3031 RMK SC8 SLP268
15:00
M
13 °C 15 mi 2.500 ft 340° 340° 14 - 19 kt METAR CYYZ 281900Z 34014G19KT 15SM BKN025 13/07 A3029 RMK SC7 SLP262
14:00
M
13 °C 15 mi 2.500 ft 350° 350° 13 kt METAR CYYZ 281800Z 35013KT 15SM BKN025 13/07 A3028 RMK SC7 SLP260
13:00
M
12 °C 15 mi 1.900 ft 360° 360° 12 kt METAR CYYZ 281700Z 36012KT 15SM OVC019 12/08 A3027 RMK SC8 SLP253
12:00
M
12 °C 15 mi 2.000 ft 320° 320° 12 kt METAR CYYZ 281600Z 32012KT 15SM OVC020 12/08 A3025 RMK SC8 SLP247
11:00
M
12 °C 15 mi 1.800 ft 330° 330° 13 kt METAR CYYZ 281500Z 33013KT 300V360 15SM OVC018 12/09 A3023 RMK SC8 SLP240
10:00
M
12 °C 15 mi 1.800 ft 330° 330° 12 kt METAR CYYZ 281400Z 33012KT 15SM BKN018 BKN080 12/09 A3020 RMK SC5AC2 SLP230
09:00
M
11 °C 15 mi 1.400 ft 350° 350° 10 kt METAR CYYZ 281300Z 35010KT 15SM BKN014 BKN080 11/10 A3017 RMK SC5AC2 SLP220
08:00
V
11 °C 15 mi 7.000 ft 340° 340° 12 kt METAR CYYZ 281200Z 34012KT 15SM FEW015 BKN070 11/10 A3014 RMK SC2AC5 SLP212
07:00
V
11 °C 15 mi 7.000 ft 330° 330° 11 kt METAR CYYZ 281100Z 33011KT 15SM FEW020 BKN070 11/10 A3011 RMK SC1AC6 SC TR SLP201
06:00
V
11 °C 15 mi 7.800 ft 330° 330° 9 kt METAR CYYZ 281000Z 33009KT 15SM FEW018 BKN078 11/11 A3009 RMK SC1AC5 SLP192
05:00
M
11 °C 15 mi 1.700 ft 350° 350° 11 kt METAR CYYZ 280900Z 35011KT 15SM BKN017 BKN075 11/10 A3006 RMK SC6AC1 SLP184
04:00
V
11 °C 15 mi 16.000 ft 330° 330° 9 kt METAR CYYZ 280800Z 33009KT 15SM SCT017 BKN160 11/11 A3004 RMK SC4AC1 SLP177
03:00
V
11 °C 15 mi 6.200 ft 340° 340° 10 kt METAR CYYZ 280700Z 34010KT 15SM SCT016 BKN062 11/11 A3002 RMK SC3SC2 SLP170
02:00
V
12 °C 15 mi 7.100 ft 340° 340° 11 kt METAR CYYZ 280600Z 34011KT 15SM BKN071 12/12 A3001 RMK AC6 SLP165
01:00
V
12 °C 15 mi 7.500 ft 330° 330° 13 kt METAR CYYZ 280500Z 33013KT 15SM FEW025 BKN075 BKN110 12/12 A2999 RMK CF1AC5AC1 CF TR SLP160
00:00
V
12 °C 15 mi 7.000 ft 320° 320° 10 kt METAR CYYZ 280400Z 32010KT 15SM FEW025 BKN070 BKN110 12/12 A2998 RMK CF1AC5AC2 CF TR SLP155

27 settembre 2022

Tempo Codice Tempo metereologico Temp. Vista Base nuvolosa Vento METAR/SPECI
23:00
V
13 °C 15 mi 7.900 ft 340° 340° 11 - 16 kt METAR CYYZ 280300Z 34011G16KT 15SM FEW018 SCT055 BKN079 13/13 A2995 RMK CF1SC3AC4 CF TR SLP146
22:48
V
13 °C 15 mi 7.700 ft 320° 320° 12 kt METAR CYYZ 280248Z 32012KT 15SM FEW025 SCT055 BKN077 13/13 A2995 RMK CU1SC3AC3 SLP146
22:27
V
13 °C 12 mi 5.100 ft 310° 310° 12 kt METAR CYYZ 280227Z 31012KT 12SM -SHRA FEW020 SCT035 BKN051 OVC085 13/13 A2994 RMK CU1SC3SC3AC1 SLP143
22:11
V
13 °C 15 mi 6.100 ft 320° 320° 12 kt METAR CYYZ 280211Z 32012KT 15SM FEW025 SCT042 BKN061 BKN072 13/13 A2994 RMK CF1SC3SC3AC1 CF TR SLP142
22:00
V
13 °C 15 mi 6.200 ft 330° 330° 13 kt METAR CYYZ 280200Z 33013KT 15SM -SHRA FEW021 SCT035 BKN062 BKN077 13/13 A2993 RMK CF1SC3SC2AC2 CF TR CVCTV CLD EMBD SLP140
21:47
V
13 °C 12 mi 5.500 ft 330° 330° 12 kt METAR CYYZ 280147Z 33012KT 12SM -SHRA SCT030 BKN055 OVC080 13/12 A2993 RMK SC3SC3AC2 CVCTV CLD EMBD SLP138
21:31
V
13 °C 15 mi 6.100 ft 330° 330° 13 kt METAR CYYZ 280131Z 33013KT 15SM SCT038 BKN061 OVC100 13/12 A2992 RMK SC4SC2AC2 SLP137
21:12
V
13 °C 15 mi 6.100 ft 320° 320° 12 kt METAR CYYZ 280112Z 32012KT 15SM -SHRA SCT030 BKN061 BKN085 13/13 A2991 RMK SC3SC3AC1 CVCTV CLD EMBD SLP134
21:00
V
13 °C 15 mi 5.800 ft 320° 320° 10 kt METAR CYYZ 280100Z 32010KT 15SM FEW020 BKN058 BKN085 BKN140 13/12 A2991 RMK CF1SC5AC1AC1 CF TR SLP132
20:00
V
14 °C 15 mi 5.200 ft 330° 330° 10 kt METAR CYYZ 280000Z 33010KT 15SM FEW025 BKN052 BKN090 14/13 A2989 RMK CU2SC4AC1 SLP125 DENSITY ALT 600FT
19:39
V
14 °C 15 mi 4.500 ft 310° 310° 11 kt METAR CYYZ 272339Z 31011KT 15SM VCSH FEW024 BKN045 BKN090 14/13 A2988 RMK CU2SC4AC1 SLP122 DENSITY ALT 700FT
19:00
V
14 °C 12 mi 5.100 ft 310° 310° 10 kt METAR CYYZ 272300Z 31010KT 12SM -SHRA SCT025 BKN051 OVC085 14/12 A2986 RMK CU3SC3AC2 SLP117 DENSITY ALT 700FT
18:03
M
14 °C 12 mi 2.400 ft 360° 360° 6 kt METAR CYYZ 272203Z 36006KT 300V070 12SM -SHRA BKN024 BKN065 14/12 A2983 RMK CU5SC2 SLP106 DENSITY ALT 800FT
18:00
M
14 °C 15 mi 2.000 ft Var Var 3 kt METAR CYYZ 272200Z VRB03KT 15SM VCSH BKN020 BKN062 14/12 A2983 RMK CU5SC1 VIS LWR NW-N SLP106 DENSITY ALT 800FT
17:39
M
14 °C 15 mi 1.900 ft Var Var 2 kt METAR CYYZ 272139Z VRB02KT 15SM BKN019 BKN060 14/12 A2983 RMK CU5SC2 SLP104 DENSITY ALT 800FT
17:20
M
14 °C 15 mi 1.700 ft 030° 030° 3 kt METAR CYYZ 272120Z 03003KT 360V090 15SM -SHRA BKN017 OVC070 14/12 A2982 RMK CU5AC3 SLP102 DENSITY ALT 800FT
17:00
V
15 °C 15 mi 6.500 ft Var Var 2 kt METAR CYYZ 272100Z VRB02KT 15SM SCT024 OVC065 15/11 A2982 RMK CU4SC4 SLP101 DENSITY ALT 800FT
16:35
V
15 °C 15 mi 5.900 ft 020° 020° 5 kt METAR CYYZ 272035Z 02005KT 15SM VCSH SCT025 BKN059 15/11 A2981 RMK CU3SC5 SLP098 DENSITY ALT 800FT
16:08
V
15 °C 15 mi 3.100 ft 340° 340° 11 - 16 kt METAR CYYZ 272008Z 34011G16KT 15SM -SHRA BKN031 OVC078 15/10 A2980 RMK CU5AC3 SLP095 DENSITY ALT 800FT
15:00
V
16 °C 15 mi 3.500 ft 230° 230° 14 - 19 kt METAR CYYZ 271900Z 23014G19KT 210V280 15SM BKN035 BKN055 16/11 A2977 RMK CU5SC2 SLP083 DENSITY ALT 1100FT
14:18
V
17 °C 15 mi 8.000 ft 260° 260° 10 kt METAR CYYZ 271818Z 26010KT 160V290 15SM SCT030 BKN080 17/10 A2976 RMK CU4AC3 SLP080 DENSITY ALT 1100FT
14:02
V
16 °C 15 mi 8.000 ft 300° 300° 8 kt METAR CYYZ 271802Z 30008KT 240V320 15SM -SHRA SCT033 BKN080 16/10 A2976 RMK CU4AC3 SLP080 DENSITY ALT 1100FT
14:00
V
17 °C 15 mi 8.000 ft 300° 300° 7 kt METAR CYYZ 271800Z 30007KT 240V330 15SM SCT030 BKN080 17/09 A2976 RMK CU4AC3 SLP080 DENSITY ALT 1100FT
13:00
V
16 °C 15 mi 7.900 ft 250° 250° 9 kt METAR CYYZ 271700Z 25009KT 15SM SCT030 BKN079 16/10 A2976 RMK CF3AC4 SLP081 DENSITY ALT 1000FT
12:00
V
14 °C 15 mi 4.700 ft 250° 250° 9 kt METAR CYYZ 271600Z 25009KT 15SM FEW024 BKN047 BKN080 14/11 A2976 RMK CF2SC4AC1 SLP080 DENSITY ALT 900FT
11:00
V
15 °C 15 mi 6.000 ft 280° 280° 8 kt METAR CYYZ 271500Z 28008KT 15SM BKN060 BKN110 15/11 A2974 RMK SC6AC1 SLP075 DENSITY ALT 900FT
Dati più vecchi

Noi e le terze parti seguiamo il tuo comportamento in internet sul nostro sito web con i cookie. Se continui, riteniamo che tu sia d'accordo con la nostra politica sui cookie. Per saperne di più